createdAt,value
2022-10-17T00:00:15.487Z,93.76
2022-10-17T00:02:20.188Z,93.92
2022-10-17T00:04:24.871Z,94.17
2022-10-17T00:06:29.501Z,93.97
2022-10-17T00:08:34.599Z,93.95
2022-10-17T00:10:39.602Z,94.13
2022-10-17T00:12:44.316Z,94.23
2022-10-17T00:14:52.307Z,94.21
2022-10-17T00:16:56.967Z,94.52
2022-10-17T00:19:01.971Z,94.86
2022-10-17T00:21:14.599Z,94.50
2022-10-17T00:23:19.294Z,94.46
2022-10-17T00:25:24.065Z,94.37
2022-10-17T00:27:29.348Z,94.21
2022-10-17T00:29:34.318Z,93.87
2022-10-17T00:31:39.040Z,93.87
2022-10-17T00:33:43.650Z,94.67
2022-10-17T00:35:48.369Z,94.55
2022-10-17T00:37:53.113Z,94.87
2022-10-17T00:39:57.835Z,94.62
2022-10-17T00:42:02.511Z,94.31
2022-10-17T00:44:23.087Z,94.19
2022-10-17T00:46:29.923Z,94.46
2022-10-17T00:48:34.670Z,94.91
2022-10-17T00:50:42.917Z,95.24
2022-10-17T00:52:48.926Z,95.29
2022-10-17T00:54:57.932Z,95.63
2022-10-17T00:57:02.817Z,95.32
2022-10-17T00:59:09.230Z,95.55
2022-10-17T01:01:18.756Z,95.40
2022-10-17T01:03:23.588Z,95.68
2022-10-17T01:05:29.086Z,95.92
2022-10-17T01:07:37.131Z,95.77
2022-10-17T01:09:44.437Z,95.10
2022-10-17T01:11:59.554Z,95.12
2022-10-17T01:14:17.208Z,95.64
2022-10-17T01:16:33.229Z,95.83
2022-10-17T01:18:51.628Z,95.72
2022-10-17T01:21:20.786Z,95.74
2022-10-17T01:24:01.929Z,95.70
2022-10-17T01:26:19.334Z,96.19
2022-10-17T01:28:46.725Z,95.94
2022-10-17T01:31:10.241Z,96.24
2022-10-17T01:33:23.284Z,96.49
2022-10-17T01:35:32.480Z,96.43
2022-10-17T01:37:45.857Z,96.57
2022-10-17T01:39:53.454Z,96.56
2022-10-17T01:42:10.415Z,96.88
2022-10-17T01:44:19.603Z,96.71
2022-10-17T01:46:28.606Z,96.89
2022-10-17T01:48:37.931Z,97.05
2022-10-17T01:50:48.814Z,96.72
2022-10-17T01:52:56.995Z,96.92
2022-10-17T01:55:07.596Z,97.21
2022-10-17T01:57:20.348Z,97.50
2022-10-17T01:59:29.269Z,97.89
2022-10-17T02:01:36.901Z,97.73
2022-10-17T02:03:45.030Z,97.85
2022-10-17T02:05:49.920Z,98.11
2022-10-17T02:07:54.673Z,98.29
2022-10-17T02:09:59.689Z,98.42
2022-10-17T02:12:37.866Z,98.98
2022-10-17T02:14:57.004Z,98.37
2022-10-17T02:17:08.536Z,98.52
2022-10-17T02:19:46.392Z,98.81
2022-10-17T02:22:01.432Z,98.68
2022-10-17T02:24:15.160Z,98.75
2022-10-17T02:26:25.982Z,98.73
2022-10-17T02:28:38.373Z,98.70
2022-10-17T02:30:47.190Z,99.04
2022-10-17T02:32:59.073Z,98.67
2022-10-17T02:35:07.511Z,99.08
2022-10-17T02:37:15.728Z,99.38
2022-10-17T02:39:22.243Z,99.31
2022-10-17T02:43:39.286Z,99.24
2022-10-17T02:45:44.140Z,99.16
2022-10-17T02:47:56.026Z,99.53
2022-10-17T02:50:00.766Z,99.61
2022-10-17T02:52:10.693Z,99.94
2022-10-17T02:54:20.841Z,99.78
2022-10-17T02:56:28.269Z,99.92
2022-10-17T02:58:36.389Z,99.91
2022-10-17T03:00:42.655Z,99.92
2022-10-17T03:02:49.226Z,99.69
2022-10-17T03:04:53.936Z,99.79
2022-10-17T03:06:58.649Z,99.50
2022-10-17T03:09:03.375Z,99.86
2022-10-17T03:11:08.340Z,99.92
2022-10-17T03:13:13.047Z,100.00
2022-10-17T03:15:18.088Z,100.00
2022-10-17T03:17:22.820Z,100.00
2022-10-17T03:19:27.564Z,100.00
2022-10-17T03:21:32.649Z,100.00
2022-10-17T03:23:37.350Z,100.00
2022-10-17T03:25:42.435Z,100.00
2022-10-17T03:27:47.171Z,100.00
2022-10-17T03:29:51.847Z,100.00
2022-10-17T03:31:56.583Z,100.00
2022-10-17T03:34:01.645Z,100.00
2022-10-17T03:36:11.026Z,100.00
2022-10-17T03:38:15.906Z,100.00
2022-10-17T03:40:22.708Z,100.00
2022-10-17T03:42:27.460Z,100.00
2022-10-17T03:44:32.110Z,100.00
2022-10-17T03:46:37.020Z,100.00
2022-10-17T03:48:42.072Z,100.00
2022-10-17T03:50:46.767Z,100.00
2022-10-17T03:52:51.669Z,100.00
2022-10-17T03:54:56.752Z,100.00
2022-10-17T03:57:01.386Z,100.00
2022-10-17T03:59:06.232Z,100.00
2022-10-17T04:01:15.469Z,100.00
2022-10-17T04:03:20.158Z,100.00
2022-10-17T04:05:25.170Z,100.00
2022-10-17T04:07:30.946Z,100.00
2022-10-17T04:09:35.861Z,100.00
2022-10-17T04:11:46.037Z,100.00
2022-10-17T04:13:54.901Z,100.00
2022-10-17T04:16:01.362Z,100.00
2022-10-17T04:18:06.859Z,100.00
2022-10-17T04:20:12.717Z,100.00
2022-10-17T04:22:17.548Z,100.00
2022-10-17T04:24:22.261Z,100.00
2022-10-17T04:26:39.741Z,100.00
2022-10-17T04:28:44.481Z,100.00
2022-10-17T04:30:55.411Z,100.00
2022-10-17T04:33:00.449Z,100.00
2022-10-17T04:35:07.753Z,100.00
2022-10-17T04:37:12.418Z,100.00
2022-10-17T04:39:17.499Z,100.00
2022-10-17T04:41:22.818Z,100.00
2022-10-17T04:43:27.527Z,100.00
2022-10-17T04:45:32.305Z,100.00
2022-10-17T04:47:39.344Z,100.00
2022-10-17T04:49:44.502Z,100.00
2022-10-17T04:51:49.381Z,100.00
2022-10-17T04:54:00.723Z,100.00
2022-10-17T04:56:10.112Z,100.00
2022-10-17T04:58:14.955Z,100.00
2022-10-17T05:00:20.260Z,100.00
2022-10-17T05:02:36.825Z,100.00
2022-10-17T05:04:41.644Z,100.00
2022-10-17T05:06:46.671Z,100.00
2022-10-17T05:09:11.621Z,100.00
2022-10-17T05:11:20.135Z,100.00
2022-10-17T05:13:24.984Z,100.00
2022-10-17T05:15:29.718Z,100.00
2022-10-17T05:17:37.332Z,100.00
2022-10-17T05:19:43.334Z,100.00
2022-10-17T05:21:48.092Z,100.00
2022-10-17T05:23:53.232Z,100.00
2022-10-17T05:25:58.300Z,100.00
2022-10-17T05:28:04.924Z,100.00
2022-10-17T05:30:11.461Z,100.00
2022-10-17T05:32:16.712Z,100.00
2022-10-17T05:34:21.632Z,100.00
2022-10-17T05:36:26.516Z,100.00
2022-10-17T05:38:31.682Z,100.00
2022-10-17T05:40:36.480Z,100.00
2022-10-17T05:42:45.476Z,100.00
2022-10-17T05:44:50.592Z,100.00
2022-10-17T05:46:56.465Z,100.00
2022-10-17T05:49:01.175Z,100.00
2022-10-17T05:51:08.008Z,100.00
2022-10-17T05:53:13.188Z,100.00
2022-10-17T05:55:22.611Z,100.00
2022-10-17T05:57:27.862Z,100.00
2022-10-17T05:59:32.716Z,100.00
2022-10-17T06:01:50.737Z,100.00
2022-10-17T06:03:55.600Z,100.00
2022-10-17T06:06:05.353Z,100.00
2022-10-17T06:08:13.193Z,100.00
2022-10-17T06:10:18.518Z,100.00
2022-10-17T06:12:23.431Z,100.00
2022-10-17T06:14:28.153Z,100.00
2022-10-17T06:16:37.504Z,100.00
2022-10-17T06:18:42.308Z,100.00
2022-10-17T06:20:47.206Z,100.00
2022-10-17T06:22:53.949Z,100.00
2022-10-17T06:25:12.012Z,100.00
2022-10-17T06:27:16.649Z,100.00
2022-10-17T06:29:21.398Z,100.00
2022-10-17T06:31:28.821Z,99.99
2022-10-17T06:33:34.524Z,100.00
2022-10-17T06:35:41.542Z,99.99
2022-10-17T06:37:46.799Z,99.99
2022-10-17T06:39:51.520Z,99.87
2022-10-17T06:41:59.389Z,99.81
2022-10-17T06:44:20.282Z,99.46
2022-10-17T06:46:35.869Z,99.63
2022-10-17T06:48:43.190Z,99.61
2022-10-17T06:51:09.086Z,99.36
2022-10-17T06:53:22.902Z,99.28
2022-10-17T06:56:06.122Z,99.26
2022-10-17T06:58:26.491Z,99.23
2022-10-17T07:00:43.182Z,99.26
2022-10-17T07:02:49.789Z,99.01
2022-10-17T07:04:54.830Z,98.87
2022-10-17T07:07:02.035Z,99.00
2022-10-17T07:09:07.088Z,98.55
2022-10-17T07:11:16.024Z,98.19
2022-10-17T07:13:21.221Z,98.28
2022-10-17T07:15:25.966Z,98.50
2022-10-17T07:17:30.861Z,98.16
2022-10-17T07:19:35.899Z,98.38
2022-10-17T07:21:40.981Z,98.12
2022-10-17T07:23:48.072Z,97.72
2022-10-17T07:25:53.492Z,97.98
2022-10-17T07:27:58.441Z,97.70
2022-10-17T07:30:03.838Z,97.67
2022-10-17T07:32:28.792Z,97.47
2022-10-17T07:34:35.059Z,97.36
2022-10-17T07:36:39.848Z,97.30
2022-10-17T07:38:45.209Z,97.09
2022-10-17T07:40:56.298Z,96.85
2022-10-17T07:43:01.922Z,96.66
2022-10-17T07:45:09.604Z,96.87
2022-10-17T07:47:14.887Z,96.49
2022-10-17T07:49:19.689Z,95.93
2022-10-17T07:51:24.396Z,95.51
2022-10-17T07:53:29.028Z,95.61
2022-10-17T07:55:33.646Z,95.64
2022-10-17T07:57:38.357Z,95.96
2022-10-17T07:59:43.019Z,95.70
2022-10-17T08:01:48.129Z,95.56
2022-10-17T08:03:53.211Z,95.44
2022-10-17T08:06:01.257Z,95.12
2022-10-17T08:08:06.314Z,94.82
2022-10-17T08:10:13.840Z,94.62
2022-10-17T08:12:18.978Z,94.75
2022-10-17T08:14:23.666Z,94.22
2022-10-17T08:16:31.340Z,94.14
2022-10-17T08:18:36.360Z,94.20
2022-10-17T08:20:41.059Z,93.63
2022-10-17T08:22:53.091Z,93.66
2022-10-17T08:24:57.776Z,93.63
2022-10-17T08:27:02.634Z,93.45
2022-10-17T08:29:12.305Z,93.25
2022-10-17T08:31:18.797Z,93.06
2022-10-17T08:33:23.500Z,92.76
2022-10-17T08:35:28.328Z,92.50
2022-10-17T08:37:35.969Z,91.80
2022-10-17T08:39:40.861Z,91.90
2022-10-17T08:41:57.149Z,91.99
2022-10-17T08:44:12.997Z,91.92
2022-10-17T08:46:19.684Z,92.00
2022-10-17T08:48:27.197Z,91.39
2022-10-17T08:50:37.620Z,90.04
2022-10-17T08:52:45.085Z,90.83
2022-10-17T08:54:50.953Z,90.88
2022-10-17T08:56:58.565Z,90.64
2022-10-17T08:59:04.753Z,90.63
2022-10-17T09:01:22.563Z,90.43
2022-10-17T09:03:48.254Z,90.29
2022-10-17T09:05:58.019Z,89.69
2022-10-17T09:08:12.254Z,89.48
2022-10-17T09:10:25.820Z,89.18
2022-10-17T09:12:40.593Z,89.00
2022-10-17T09:15:11.546Z,88.59
2022-10-17T09:17:29.601Z,88.95
2022-10-17T09:19:37.752Z,88.45
2022-10-17T09:21:46.646Z,88.20
2022-10-17T09:24:03.781Z,87.88
2022-10-17T09:26:17.272Z,87.46
2022-10-17T09:28:26.224Z,87.50
2022-10-17T09:30:46.397Z,87.11
2022-10-17T09:32:52.399Z,86.84
2022-10-17T09:34:57.382Z,86.10
2022-10-17T09:37:09.586Z,85.95
2022-10-17T09:39:17.613Z,85.70
2022-10-17T09:41:44.206Z,85.40
2022-10-17T09:43:52.157Z,85.52
2022-10-17T09:46:08.515Z,85.36
2022-10-17T09:48:23.600Z,84.91
2022-10-17T09:50:31.171Z,84.69
2022-10-17T09:52:43.419Z,84.37
2022-10-17T09:54:49.955Z,84.24
2022-10-17T09:57:03.758Z,83.65
2022-10-17T09:59:13.804Z,83.01
2022-10-17T10:01:24.004Z,82.51
2022-10-17T10:03:29.327Z,82.67
2022-10-17T10:05:34.145Z,82.60
2022-10-17T10:07:39.696Z,82.19
2022-10-17T10:09:49.035Z,81.97
2022-10-17T10:11:56.777Z,81.50
2022-10-17T10:14:19.586Z,81.30
2022-10-17T10:16:30.896Z,80.72
2022-10-17T10:18:36.468Z,79.77
2022-10-17T10:20:41.411Z,79.66
2022-10-17T10:23:05.478Z,79.75
2022-10-17T10:25:16.158Z,79.47
2022-10-17T10:27:29.266Z,78.62
2022-10-17T10:29:36.632Z,78.48
2022-10-17T10:31:41.634Z,78.07
2022-10-17T10:33:49.540Z,77.02
2022-10-17T10:35:59.268Z,77.17
2022-10-17T10:38:09.510Z,76.85
2022-10-17T10:40:22.641Z,75.91
2022-10-17T10:42:30.983Z,75.34
2022-10-17T10:44:38.167Z,74.04
2022-10-17T10:46:43.059Z,74.21
2022-10-17T10:48:55.314Z,74.12
2022-10-17T10:51:02.940Z,73.14
2022-10-17T10:53:20.414Z,71.29
2022-10-17T10:55:29.780Z,72.05
2022-10-17T10:57:38.007Z,72.25
2022-10-17T10:59:49.476Z,71.82
2022-10-17T11:02:00.245Z,71.15
2022-10-17T11:04:17.926Z,70.87
2022-10-17T11:06:27.398Z,70.65
2022-10-17T11:08:40.477Z,70.10
2022-10-17T11:10:57.272Z,70.04
2022-10-17T11:13:11.021Z,68.68
2022-10-17T11:15:23.844Z,68.36
2022-10-17T11:17:34.624Z,68.55
2022-10-17T11:19:45.129Z,68.83
2022-10-17T11:21:56.322Z,68.13
2022-10-17T11:24:09.090Z,67.80
2022-10-17T11:26:18.581Z,67.21
2022-10-17T11:28:24.918Z,66.16
2022-10-17T11:30:41.550Z,66.30
2022-10-17T11:32:50.730Z,66.09
2022-10-17T11:35:00.334Z,65.61
2022-10-17T11:37:12.601Z,65.36
2022-10-17T11:39:20.497Z,65.04
2022-10-17T11:41:34.658Z,65.13
2022-10-17T11:43:45.531Z,64.83
2022-10-17T11:45:55.783Z,64.49
2022-10-17T11:48:06.594Z,64.60
2022-10-17T11:52:56.297Z,63.30
2022-10-17T11:55:11.603Z,63.45
2022-10-17T11:57:39.522Z,62.43
2022-10-17T11:59:58.661Z,63.03
2022-10-17T12:02:09.820Z,62.50
2022-10-17T12:04:35.372Z,62.36
2022-10-17T12:06:57.235Z,62.06
2022-10-17T12:09:11.990Z,61.05
2022-10-17T12:11:42.091Z,61.41
2022-10-17T12:13:52.992Z,61.17
2022-10-17T12:15:59.006Z,60.79
2022-10-17T12:18:16.443Z,60.70
2022-10-17T12:20:37.729Z,60.74
2022-10-17T12:22:48.650Z,60.53
2022-10-17T12:25:01.913Z,60.02
2022-10-17T12:27:37.020Z,60.07
2022-10-17T12:29:41.839Z,59.03
2022-10-17T12:31:46.614Z,57.47
2022-10-17T12:33:53.997Z,58.67
2022-10-17T12:36:29.056Z,58.67
2022-10-17T12:38:33.736Z,58.30
2022-10-17T12:41:01.429Z,58.41
2022-10-17T12:43:46.796Z,58.26
2022-10-17T12:45:52.937Z,57.34
2022-10-17T12:47:57.674Z,56.60
2022-10-17T12:50:02.658Z,57.66
2022-10-17T12:52:24.975Z,57.09
2022-10-17T12:54:37.828Z,56.50
2022-10-17T12:56:52.209Z,55.47
2022-10-17T12:58:58.369Z,56.62
2022-10-17T13:01:23.295Z,56.43
2022-10-17T13:03:32.002Z,55.44
2022-10-17T13:05:40.199Z,55.23
2022-10-17T13:07:48.492Z,54.38
2022-10-17T13:09:53.293Z,54.33
2022-10-17T13:12:00.990Z,53.47
2022-10-17T13:14:13.258Z,53.80
2022-10-17T13:16:31.562Z,54.29
2022-10-17T13:18:36.226Z,54.13
2022-10-17T13:20:40.976Z,54.88
2022-10-17T13:22:47.363Z,54.78
2022-10-17T13:24:53.603Z,54.16
2022-10-17T13:26:58.773Z,53.37
2022-10-17T13:29:06.968Z,53.55
2022-10-17T13:31:29.639Z,53.87
2022-10-17T13:33:37.572Z,53.20
2022-10-17T13:35:59.538Z,53.35
2022-10-17T13:38:07.017Z,53.28
2022-10-17T13:40:49.165Z,53.81
2022-10-17T13:42:44.311Z,53.54
2022-10-17T13:44:49.252Z,53.57
2022-10-17T13:46:54.376Z,53.48
2022-10-17T13:49:08.501Z,53.33
2022-10-17T13:51:14.483Z,52.97
2022-10-17T13:53:30.458Z,53.06
2022-10-17T13:55:35.091Z,52.94
2022-10-17T13:57:39.866Z,52.59
2022-10-17T13:59:46.544Z,53.06
2022-10-17T14:01:51.798Z,53.01
2022-10-17T14:04:08.348Z,52.46
2022-10-17T14:06:17.887Z,52.64
2022-10-17T14:08:23.818Z,53.32
2022-10-17T14:10:33.053Z,53.44
2022-10-17T14:12:42.639Z,52.81
2022-10-17T14:15:09.733Z,52.92
2022-10-17T14:17:25.122Z,53.11
2022-10-17T14:19:32.755Z,53.44
2022-10-17T14:21:44.224Z,53.00
2022-10-17T14:23:50.189Z,53.51
2022-10-17T14:26:06.896Z,53.48
2022-10-17T14:28:16.038Z,53.66
2022-10-17T14:30:55.698Z,53.74
2022-10-17T14:33:04.016Z,53.39
2022-10-17T14:35:37.367Z,53.50
2022-10-17T14:37:45.375Z,53.35
2022-10-17T14:39:52.086Z,53.59
2022-10-17T14:41:59.690Z,53.51
2022-10-17T14:44:16.827Z,53.55
2022-10-17T14:46:21.772Z,53.10
2022-10-17T14:48:28.127Z,53.57
2022-10-17T14:50:34.044Z,53.65
2022-10-17T14:52:39.100Z,53.98
2022-10-17T14:54:46.097Z,53.53
2022-10-17T14:56:53.590Z,53.37
2022-10-17T14:58:58.181Z,53.79
2022-10-17T15:01:03.454Z,53.93
2022-10-17T15:03:08.202Z,53.79
2022-10-17T15:05:13.725Z,53.87
2022-10-17T15:07:19.481Z,54.01
2022-10-17T15:09:24.402Z,53.70
2022-10-17T15:11:29.781Z,53.48
2022-10-17T15:13:40.073Z,53.69
2022-10-17T15:15:47.846Z,54.01
2022-10-17T15:17:52.471Z,54.04
2022-10-17T15:19:57.788Z,54.19
2022-10-17T15:22:02.700Z,54.20
2022-10-17T15:24:07.737Z,54.15
2022-10-17T15:26:19.002Z,53.89
2022-10-17T15:28:23.650Z,54.20
2022-10-17T15:30:32.242Z,54.16
2022-10-17T15:32:36.950Z,53.91
2022-10-17T15:34:42.220Z,53.87
2022-10-17T15:36:51.350Z,54.09
2022-10-17T15:38:58.471Z,54.41
2022-10-17T15:41:03.173Z,54.47
2022-10-17T15:43:09.199Z,54.36
2022-10-17T15:45:15.489Z,54.39
2022-10-17T15:47:27.330Z,53.97
2022-10-17T15:49:32.207Z,54.29
2022-10-17T15:51:36.997Z,54.41
2022-10-17T15:53:41.948Z,54.35
2022-10-17T15:55:47.177Z,54.30
2022-10-17T15:57:51.879Z,54.28
2022-10-17T15:59:57.823Z,54.43
2022-10-17T16:02:02.927Z,54.46
2022-10-17T16:04:09.232Z,54.72
2022-10-17T16:06:14.306Z,54.71
2022-10-17T16:08:19.183Z,54.86
2022-10-17T16:10:24.910Z,54.93
2022-10-17T16:12:30.378Z,54.80
2022-10-17T16:14:35.096Z,54.66
2022-10-17T16:16:41.087Z,54.76
2022-10-17T16:18:45.793Z,54.85
2022-10-17T16:20:50.524Z,55.07
2022-10-17T16:22:55.715Z,55.16
2022-10-17T16:25:00.425Z,54.69
2022-10-17T16:27:05.148Z,54.84
2022-10-17T16:29:10.382Z,54.55
2022-10-17T16:31:22.346Z,54.81
2022-10-17T16:33:27.383Z,55.00
2022-10-17T16:35:36.544Z,55.24
2022-10-17T16:37:45.007Z,55.33
2022-10-17T16:39:49.776Z,55.30
2022-10-17T16:41:57.717Z,55.35
2022-10-17T16:44:05.498Z,55.19
2022-10-17T16:46:10.197Z,55.46
2022-10-17T16:48:15.983Z,55.23
2022-10-17T16:50:20.763Z,55.32
2022-10-17T16:52:25.795Z,55.41
2022-10-17T16:54:30.523Z,55.46
2022-10-17T16:56:35.410Z,55.56
2022-10-17T16:58:41.275Z,55.62
2022-10-17T17:00:48.487Z,55.71
2022-10-17T17:02:53.679Z,55.95
2022-10-17T17:04:58.532Z,56.11
2022-10-17T17:07:04.349Z,56.23
2022-10-17T17:09:09.799Z,56.18
2022-10-17T17:11:18.439Z,56.38
2022-10-17T17:13:24.909Z,56.48
2022-10-17T17:15:31.074Z,56.58
2022-10-17T17:17:54.712Z,56.79
2022-10-17T17:20:02.326Z,56.87
2022-10-17T17:22:11.306Z,56.99
2022-10-17T17:24:17.464Z,57.03
2022-10-17T17:26:25.345Z,57.22
2022-10-17T17:28:32.564Z,57.18
2022-10-17T17:30:39.419Z,57.55
2022-10-17T17:32:44.618Z,57.70
2022-10-17T17:34:49.426Z,57.95
2022-10-17T17:36:55.057Z,58.19
2022-10-17T17:39:01.943Z,58.36
2022-10-17T17:41:11.240Z,58.64
2022-10-17T17:43:16.509Z,58.83
2022-10-17T17:45:23.260Z,59.07
2022-10-17T17:47:30.386Z,59.38
2022-10-17T17:49:36.293Z,59.65
2022-10-17T17:51:43.549Z,59.72
2022-10-17T17:53:50.085Z,59.98
2022-10-17T17:56:05.922Z,60.23
2022-10-17T17:58:11.683Z,60.26
2022-10-17T18:00:17.463Z,60.53
2022-10-17T18:02:23.564Z,60.87
2022-10-17T18:04:29.461Z,60.95
2022-10-17T18:06:35.058Z,61.25
2022-10-17T18:08:40.633Z,61.46
2022-10-17T18:10:50.696Z,61.56
2022-10-17T18:12:56.248Z,61.74
2022-10-17T18:15:03.599Z,62.05
2022-10-17T18:17:12.512Z,62.29
2022-10-17T18:19:19.831Z,62.60
2022-10-17T18:21:25.728Z,62.67
2022-10-17T18:23:32.724Z,62.74
2022-10-17T18:25:39.340Z,63.02
2022-10-17T18:27:45.145Z,63.22
2022-10-17T18:29:51.956Z,63.42
2022-10-17T18:32:01.756Z,63.60
2022-10-17T18:34:08.718Z,63.69
2022-10-17T18:36:16.268Z,63.87
2022-10-17T18:38:23.279Z,64.31
2022-10-17T18:40:36.283Z,64.21
2022-10-17T18:42:44.214Z,64.34
2022-10-17T18:44:52.746Z,64.49
2022-10-17T18:47:02.897Z,64.56
2022-10-17T18:49:10.875Z,64.67
2022-10-17T18:51:26.361Z,64.90
2022-10-17T18:53:32.988Z,65.09
2022-10-17T18:55:40.712Z,65.07
2022-10-17T18:57:48.064Z,65.26
2022-10-17T18:59:57.770Z,65.32
2022-10-17T19:02:04.043Z,65.47
2022-10-17T19:04:10.123Z,65.59
2022-10-17T19:06:17.820Z,65.58
2022-10-17T19:08:23.011Z,65.74
2022-10-17T19:10:27.665Z,65.79
2022-10-17T19:12:34.430Z,66.04
2022-10-17T19:14:40.585Z,66.04
2022-10-17T19:16:47.411Z,66.12
2022-10-17T19:18:53.826Z,66.22
2022-10-17T19:21:03.469Z,66.23
2022-10-17T19:23:08.174Z,66.25
2022-10-17T19:25:12.986Z,66.29
2022-10-17T19:27:18.369Z,66.35
2022-10-17T19:29:27.929Z,66.50
2022-10-17T19:31:35.313Z,66.40
2022-10-17T19:33:40.169Z,66.53
2022-10-17T19:35:44.976Z,66.60
2022-10-17T19:37:51.041Z,66.64
2022-10-17T19:39:56.107Z,66.65
2022-10-17T19:42:06.737Z,66.55
2022-10-17T19:44:13.567Z,66.59
2022-10-17T19:46:20.363Z,66.63
2022-10-17T19:48:25.726Z,66.63
2022-10-17T19:50:31.987Z,66.60
2022-10-17T19:52:36.996Z,66.63
2022-10-17T19:54:46.247Z,66.67
2022-10-17T19:56:51.908Z,66.79
2022-10-17T19:58:57.070Z,66.81
2022-10-17T20:01:05.752Z,66.78
2022-10-17T20:03:10.585Z,66.85
2022-10-17T20:05:18.886Z,66.95
2022-10-17T20:07:24.029Z,66.97
2022-10-17T20:09:28.830Z,67.05
2022-10-17T20:11:34.639Z,67.18
2022-10-17T20:13:40.867Z,67.25
2022-10-17T20:15:55.438Z,67.30
2022-10-17T20:18:01.179Z,67.29
2022-10-17T20:20:08.828Z,67.38
2022-10-17T20:22:14.154Z,67.40
2022-10-17T20:24:18.956Z,67.42
2022-10-17T20:26:36.566Z,67.55
2022-10-17T20:28:43.110Z,67.49
2022-10-17T20:30:47.974Z,67.66
2022-10-17T20:32:55.103Z,67.81
2022-10-17T20:35:00.416Z,67.65
2022-10-17T20:37:05.392Z,67.71
2022-10-17T20:39:12.432Z,67.77
2022-10-17T20:41:17.105Z,67.79
2022-10-17T20:43:21.790Z,67.68
2022-10-17T20:45:37.639Z,67.78
2022-10-17T20:47:52.846Z,67.73
2022-10-17T20:49:57.739Z,67.70
2022-10-17T20:52:02.849Z,67.77
2022-10-17T20:54:07.490Z,67.73
2022-10-17T20:56:19.809Z,67.79
2022-10-17T20:58:24.462Z,67.81
2022-10-17T21:00:29.197Z,67.78
2022-10-17T21:02:33.926Z,67.85
2022-10-17T21:04:46.350Z,67.97
2022-10-17T21:06:51.707Z,67.99
2022-10-17T21:08:59.208Z,68.07
2022-10-17T21:11:12.450Z,68.13
2022-10-17T21:13:17.170Z,68.15
2022-10-17T21:15:21.807Z,68.21
2022-10-17T21:17:26.605Z,68.21
2022-10-17T21:19:31.256Z,68.16
2022-10-17T21:21:37.851Z,68.25
2022-10-17T21:23:43.550Z,68.26
2022-10-17T21:25:48.221Z,68.18
2022-10-17T21:27:54.639Z,68.15
2022-10-17T21:29:59.327Z,68.15
2022-10-17T21:32:11.371Z,68.13
2022-10-17T21:34:28.816Z,68.19
2022-10-17T21:36:33.616Z,68.25
2022-10-17T21:38:39.530Z,68.23
2022-10-17T21:40:48.774Z,68.39
2022-10-17T21:42:54.156Z,68.46
2022-10-17T21:44:58.748Z,68.54
2022-10-17T21:47:03.430Z,68.59
2022-10-17T21:49:09.606Z,68.67
2022-10-17T21:51:23.209Z,68.69
2022-10-17T21:53:28.058Z,68.76
2022-10-17T21:55:35.534Z,68.88
2022-10-17T21:57:40.169Z,68.89
2022-10-17T21:59:44.761Z,69.08
2022-10-17T22:01:49.517Z,69.04
2022-10-17T22:03:55.699Z,69.24
2022-10-17T22:06:12.971Z,69.37
2022-10-17T22:08:25.064Z,69.49
2022-10-17T22:10:29.748Z,69.72
2022-10-17T22:12:34.439Z,69.82
2022-10-17T22:14:39.114Z,69.87
2022-10-17T22:16:44.521Z,70.09
2022-10-17T22:18:49.483Z,70.21
2022-10-17T22:20:54.103Z,70.32
2022-10-17T22:22:58.775Z,70.49
2022-10-17T22:25:03.585Z,70.33
2022-10-17T22:27:08.242Z,70.34
2022-10-17T22:29:13.649Z,70.41
2022-10-17T22:31:18.460Z,70.46
2022-10-17T22:33:23.206Z,70.64
2022-10-17T22:35:27.908Z,70.58
2022-10-17T22:37:32.810Z,70.57
2022-10-17T22:39:37.818Z,70.54
2022-10-17T22:41:42.549Z,70.65
2022-10-17T22:43:47.340Z,70.53
2022-10-17T22:45:56.576Z,70.82
2022-10-17T22:48:01.208Z,70.90
2022-10-17T22:50:06.613Z,70.96
2022-10-17T22:52:11.251Z,71.02
2022-10-17T22:54:16.199Z,70.93
2022-10-17T22:56:22.112Z,71.01
2022-10-17T22:58:28.612Z,70.85
2022-10-17T23:00:33.228Z,70.95
2022-10-17T23:02:38.361Z,70.86
2022-10-17T23:04:43.015Z,70.91
2022-10-17T23:06:47.654Z,70.86
2022-10-17T23:08:52.306Z,71.01
2022-10-17T23:10:57.301Z,71.14
2022-10-17T23:13:02.309Z,71.15
2022-10-17T23:15:08.683Z,70.96
2022-10-17T23:17:13.893Z,70.89
2022-10-17T23:19:18.810Z,70.70
2022-10-17T23:21:23.514Z,70.64
2022-10-17T23:23:28.189Z,70.32
2022-10-17T23:25:34.430Z,70.54
2022-10-17T23:27:39.004Z,70.34
2022-10-17T23:29:44.810Z,70.29
2022-10-17T23:31:49.501Z,70.28
2022-10-17T23:33:54.113Z,70.40
2022-10-17T23:35:58.826Z,70.32
2022-10-17T23:38:03.485Z,70.26
2022-10-17T23:40:09.949Z,70.21
2022-10-17T23:42:14.555Z,70.25
2022-10-17T23:44:20.693Z,70.23
2022-10-17T23:46:25.483Z,70.36
2022-10-17T23:48:30.486Z,70.20
2022-10-17T23:50:35.375Z,70.25
2022-10-17T23:52:40.047Z,70.00
2022-10-17T23:54:44.739Z,70.00
2022-10-17T23:56:49.367Z,70.05
2022-10-17T23:58:54.093Z,69.94
